Terminal Aerodrome Forecast
Issued by NWS Louisville, KY

Home | Current Version | Previous Version | Text Only | Print | Product List | Glossary On
Versions: 1 2 3 4 5 6 7 8 9 10 11 12 13 14 15 16 17 18 19 20
000
FTUS43 KLMK 211400 AAC
TAFLEX
TAF AMD
KLEX 211459Z 2115/2212 27012G20KT P6SM BKN016
     FM211700 29014G20KT P6SM SCT025
     FM220100 30007KT P6SM SKC=

USA.gov is the U.S. government's official web portal to all federal, state and local government web resources and services.